Time;durP1;ratioP1;P1;durP2;ratioP2;P2;SDS_P1;SDS_P2;PMS_P1;PMS_P2;Temp;Humidity;BMP_temperature;BMP_pressure;BME280_temperature;BME280_humidity;BME280_pressure;Samples;Min_cycle;Max_cycle;Signal;HPM_P1;HPM_P2
2023/06/23 00:04:19;;;;;;;12.70;10.90;;;23.80;99.90;;;22.93;100.00;99968.59;12461254;23;96481;-91
2023/06/23 00:09:23;;;;;;;12.52;10.80;;;23.80;99.90;;;22.84;100.00;99961.16;12461323;23;96604;-91
2023/06/23 00:14:26;;;;;;;12.68;11.27;;;23.70;99.90;;;22.82;100.00;99968.72;12460541;23;96919;-92
2023/06/23 00:19:31;;;;;;;14.05;12.40;;;23.60;99.90;;;22.74;100.00;99953.75;12459933;23;96534;-91
2023/06/23 00:24:35;;;;;;;13.43;11.60;;;23.60;99.90;;;22.73;100.00;99965.66;12460438;23;96506;-92
2023/06/23 00:29:39;;;;;;;13.55;11.73;;;23.60;99.90;;;22.70;100.00;99972.38;12458861;23;96977;-91
2023/06/23 00:34:42;;;;;;;14.65;12.57;;;23.50;99.90;;;22.66;100.00;99967.72;12458369;23;96562;-91
2023/06/23 00:39:45;;;;;;;16.30;12.00;;;23.50;99.90;;;22.67;100.00;99951.22;12459653;23;97695;-92
2023/06/23 00:44:50;;;;;;;15.52;12.20;;;23.50;99.90;;;22.71;100.00;99952.34;12461284;23;97000;-91
2023/06/23 00:49:54;;;;;;;17.95;13.68;;;23.60;99.90;;;22.66;100.00;99941.44;12460910;23;96750;-92
2023/06/23 00:55:02;;;;;;;14.38;12.93;;;23.60;99.90;;;22.59;100.00;99940.81;12460515;23;96461;-92
2023/06/23 01:00:13;;;;;;;15.60;13.18;;;23.50;99.90;;;22.57;100.00;99942.16;12455267;23;96822;-92
2023/06/23 01:05:19;;;;;;;16.35;13.48;;;23.40;99.90;;;22.50;100.00;99936.94;12457233;23;96533;-92
2023/06/23 01:10:26;;;;;;;15.20;13.60;;;23.40;99.90;;;22.50;100.00;99938.84;12458407;23;96664;-92
2023/06/23 01:15:39;;;;;;;16.10;14.23;;;23.30;99.90;;;22.48;100.00;99930.13;12484743;23;96499;-92
2023/06/23 01:20:46;;;;;;;16.33;14.63;;;23.40;99.90;;;22.47;100.00;99925.78;12461364;23;96875;-90
2023/06/23 01:26:07;;;;;;;16.45;13.85;;;23.40;99.90;;;22.47;100.00;99928.50;12462553;23;96405;-91
2023/06/23 01:31:26;;;;;;;17.10;15.48;;;23.40;99.90;;;22.37;100.00;99913.78;12486013;23;97035;-90
2023/06/23 01:36:42;;;;;;;15.45;13.95;;;23.30;99.90;;;22.37;100.00;99926.47;12465073;23;96845;-90
2023/06/23 01:41:55;;;;;;;15.82;14.20;;;23.30;99.90;;;22.26;100.00;99938.25;12462832;23;96529;-92
2023/06/23 01:47:08;;;;;;;15.48;13.55;;;23.20;99.90;;;22.26;100.00;99944.50;12461287;23;97022;-90
2023/06/23 01:52:13;;;;;;;15.73;14.23;;;23.10;99.90;;;22.26;100.00;99943.69;12438017;23;97022;-90
2023/06/23 01:57:20;;;;;;;15.60;14.00;;;23.20;99.90;;;22.25;100.00;99958.25;12462995;23;96472;-90
2023/06/23 02:02:27;;;;;;;16.75;15.02;;;23.20;99.90;;;22.26;100.00;99958.03;12462106;23;96461;-90
2023/06/23 02:07:33;;;;;;;15.32;13.48;;;23.20;99.90;;;22.30;100.00;99966.44;12460142;23;97131;-91
2023/06/23 02:12:41;;;;;;;14.45;12.95;;;23.20;99.90;;;22.39;100.00;99962.25;12460184;23;96927;-90
2023/06/23 02:17:49;;;;;;;14.43;13.10;;;23.30;99.90;;;22.48;100.00;99965.31;12461431;23;96846;-90
2023/06/23 02:22:53;;;;;;;15.10;13.52;;;23.40;99.90;;;22.55;100.00;99955.13;12461759;23;96785;-91
2023/06/23 02:27:58;;;;;;;15.93;13.63;;;23.40;99.90;;;22.54;100.00;99943.47;12484548;23;96347;-92
2023/06/23 02:33:02;;;;;;;14.75;13.13;;;23.50;99.90;;;22.49;100.00;99943.44;12460000;23;96778;-92
2023/06/23 02:38:12;;;;;;;15.48;13.80;;;23.40;99.90;;;22.45;100.00;99942.28;12461277;23;96445;-91
2023/06/23 02:43:24;;;;;;;17.83;14.57;;;23.30;99.90;;;22.37;100.00;99948.97;12461770;23;96566;-93
2023/06/23 02:48:42;;;;;;;15.82;13.70;;;23.30;99.90;;;22.28;100.00;99936.13;12463236;23;96571;-93
2023/06/23 02:53:55;;;;;;;16.30;14.18;;;23.20;99.90;;;22.20;100.00;99931.97;12460953;23;97142;-94
2023/06/23 02:59:08;;;;;;;16.02;14.30;;;23.10;99.90;;;22.15;100.00;99935.41;12462427;23;96354;-93
2023/06/23 03:04:11;;;;;;;17.05;14.73;;;23.10;99.90;;;22.05;100.00;99940.66;12458906;23;96651;-93
2023/06/23 03:09:15;;;;;;;16.63;14.95;;;23.00;99.90;;;22.00;100.00;99929.75;12460269;23;96670;-93
2023/06/23 03:14:19;;;;;;;20.40;15.30;;;22.90;99.90;;;21.93;100.00;99953.47;12485538;23;96504;-92
2023/06/23 03:20:08;;;;;;;16.77;14.35;;;22.80;99.90;;;21.88;100.00;99956.91;12460365;23;96486;-92
2023/06/23 03:25:18;;;;;;;16.23;14.52;;;22.80;99.90;;;21.80;100.00;99956.50;12482791;23;96438;-93
2023/06/23 03:30:44;;;;;;;16.55;14.43;;;22.80;99.90;;;21.81;100.00;99966.25;12436988;23;96516;-93
2023/06/23 03:35:49;;;;;;;16.83;15.10;;;22.80;99.90;;;21.82;100.00;99960.59;12460740;23;96422;-93
2023/06/23 03:41:05;;;;;;;14.45;12.95;;;22.70;99.90;;;21.88;100.00;99958.78;12461707;23;96709;-92
2023/06/23 03:46:26;;;;;;;15.32;13.82;;;22.80;99.90;;;21.92;100.00;99982.41;12460243;23;96689;-92
2023/06/23 03:51:34;;;;;;;17.77;15.68;;;22.80;99.90;;;21.88;100.00;99970.44;12439477;23;97751;-92
2023/06/23 03:56:39;;;;;;;16.50;14.38;;;22.80;99.90;;;22.02;100.00;99965.50;12459398;23;96473;-92
2023/06/23 04:01:45;;;;;;;17.45;13.70;;;22.90;99.90;;;22.15;100.00;99978.72;12459021;23;97047;-92
2023/06/23 04:06:51;;;;;;;15.23;13.65;;;23.10;99.90;;;22.29;100.00;99965.63;12460426;23;96885;-92
2023/06/23 04:11:57;;;;;;;17.42;12.77;;;23.30;99.90;;;22.45;100.00;99961.25;12435220;23;97147;-92
2023/06/23 04:17:03;;;;;;;14.18;12.68;;;23.40;99.90;;;22.66;100.00;99979.38;12460005;23;96482;-92
2023/06/23 04:22:08;;;;;;;14.68;12.70;;;23.60;99.90;;;22.81;100.00;99975.22;12458733;23;96845;-93
2023/06/23 04:27:16;;;;;;;16.77;13.65;;;23.70;99.90;;;22.95;100.00;99962.94;12437969;23;96547;-93
2023/06/23 04:32:21;;;;;;;15.45;12.82;;;23.90;99.90;;;22.98;100.00;99962.44;12460689;23;97121;-93
2023/06/23 04:37:57;;;;;;;16.85;13.43;;;23.90;99.90;;;23.08;100.00;99977.97;12437225;23;97160;-90
2023/06/23 04:43:26;;;;;;;17.65;14.68;;;24.00;99.90;;;23.18;100.00;99954.50;12462874;23;97049;-91
2023/06/23 04:48:40;;;;;;;14.40;13.02;;;24.10;99.90;;;23.29;100.00;99957.31;12483465;23;96440;-91
2023/06/23 04:53:56;;;;;;;15.15;13.57;;;24.20;99.90;;;23.39;100.00;99932.97;12464005;23;96872;-90
2023/06/23 04:59:06;;;;;;;15.55;13.27;;;24.30;99.90;;;23.54;100.00;99943.97;12461712;23;96961;-91
2023/06/23 05:04:13;;;;;;;13.95;12.48;;;24.50;99.90;;;23.69;100.00;99952.25;12462189;23;97758;-91
2023/06/23 05:09:19;;;;;;;13.35;11.95;;;24.60;99.90;;;23.85;100.00;99960.47;12461370;23;96950;-90
2023/06/23 05:14:25;;;;;;;14.10;12.63;;;24.80;99.90;;;24.00;98.28;99955.16;12462635;23;96448;-91
2023/06/23 05:19:31;;;;;;;13.02;11.73;;;24.90;99.90;;;24.15;97.01;99960.66;12463146;23;96733;-90
2023/06/23 05:24:41;;;;;;;14.32;11.60;;;25.10;99.90;;;24.19;93.13;99967.22;12486343;23;96753;-90
2023/06/23 05:29:46;;;;;;;;;;;25.10;99.90;;;24.29;92.45;99964.56;12461102;23;97229;-90
2023/06/23 05:34:52;;;;;;;16.35;11.15;;;25.20;99.90;;;24.36;90.47;99956.22;12460624;23;96611;-91
2023/06/23 05:39:59;;;;;;;12.45;11.15;;;25.20;99.90;;;24.50;90.08;99961.97;12458553;23;97095;-91
2023/06/23 05:45:04;;;;;;;12.70;10.38;;;25.40;99.90;;;24.64;89.86;99954.94;12460692;23;96567;-90
2023/06/23 05:50:25;;;;;;;14.25;12.40;;;25.60;99.90;;;24.73;87.66;99941.69;12486425;23;96424;-91
2023/06/23 05:55:31;;;;;;;11.13;10.07;;;25.70;99.90;;;24.88;86.35;99946.31;12474621;23;96360;-92
2023/06/23 06:00:43;;;;;;;17.38;11.57;;;25.80;99.90;;;25.03;85.81;99938.22;12470364;23;96927;-91
2023/06/23 06:05:56;;;;;;;13.35;11.23;;;26.00;99.90;;;25.19;83.86;99929.03;12461493;23;96911;-93
2023/06/23 06:11:02;;;;;;;16.95;10.30;;;26.20;99.90;;;25.25;82.62;99922.50;12460290;23;96547;-89
2023/06/23 06:16:09;;;;;;;14.93;12.05;;;26.30;99.90;;;25.31;82.17;99917.88;12462014;23;96783;-88
2023/06/23 06:21:15;;;;;;;12.32;11.07;;;26.30;99.90;;;25.41;81.20;99912.44;12461565;23;96429;-88
2023/06/23 06:26:20;;;;;;;12.85;10.77;;;26.40;99.90;;;25.48;81.07;99901.25;12487373;23;96522;-89
2023/06/23 06:31:25;;;;;;;11.50;10.35;;;26.40;99.90;;;25.58;80.22;99901.25;12460548;23;96467;-89
2023/06/23 06:36:33;;;;;;;46.42;12.23;;;26.50;99.90;;;25.75;80.02;99892.84;12461774;23;96797;-89
2023/06/23 06:41:39;;;;;;;12.87;10.23;;;26.70;99.90;;;25.87;77.05;99894.16;12462935;23;96398;-89
2023/06/23 06:46:43;;;;;;;14.68;10.80;;;26.80;99.90;;;26.05;78.35;99895.47;12460685;23;96499;-88
2023/06/23 06:51:49;;;;;;;11.25;10.13;;;27.00;99.90;;;26.21;76.31;99909.03;12486258;23;96476;-88
2023/06/23 06:56:57;;;;;;;13.27;10.63;;;27.20;99.90;;;26.40;75.96;99900.00;12460303;23;96720;-88
2023/06/23 07:02:03;;;;;;;12.65;10.38;;;27.40;99.90;;;26.60;75.21;99890.09;12458205;23;96719;-89
2023/06/23 07:07:07;;;;;;;15.45;11.13;;;27.50;99.90;;;26.71;72.75;99891.66;12462916;23;96379;-96
2023/06/23 07:12:11;;;;;;;14.13;11.27;;;27.70;99.80;;;26.80;72.73;99889.13;12461227;23;96516;-94
2023/06/23 07:17:15;;;;;;;15.15;11.27;;;27.70;99.60;;;26.90;72.26;99880.91;12485448;23;96441;-95
2023/06/23 07:22:21;;;;;;;16.15;11.20;;;27.80;99.30;;;27.01;71.50;99874.28;12462294;23;96691;-94
2023/06/23 07:27:25;;;;;;;14.07;11.68;;;28.00;99.10;;;27.15;71.60;99885.38;12458776;23;97007;-92
2023/06/23 07:32:29;;;;;;;14.40;10.55;;;28.20;98.90;;;27.35;71.03;99889.84;12461020;23;96734;-94
2023/06/23 07:37:32;;;;;;;18.90;10.60;;;28.30;98.90;;;27.60;71.78;99886.06;12485478;23;96423;-89
2023/06/23 07:42:36;;;;;;;15.52;11.65;;;28.60;98.70;;;27.83;69.09;99879.88;12460369;23;96387;-89
2023/06/23 07:47:40;;;;;;;14.93;10.75;;;28.90;98.00;;;27.95;68.41;99871.28;12484706;23;96712;-90
2023/06/23 07:52:54;;;;;;;17.10;11.73;;;29.00;97.90;;;28.06;67.25;99870.03;12458882;23;96470;-92
2023/06/23 07:57:58;;;;;;;12.43;10.60;;;29.00;97.10;;;28.22;67.49;99862.44;12487076;23;96781;-89
2023/06/23 08:03:02;;;;;;;13.27;10.95;;;29.10;97.10;;;28.41;67.14;99857.03;12485292;23;96398;-92
2023/06/23 08:08:06;;;;;;;16.27;12.23;;;29.30;96.90;;;28.57;66.38;99860.38;12458955;23;96524;-96
2023/06/23 08:13:10;;;;;;;14.75;11.85;;;29.50;96.50;;;28.71;66.10;99861.25;12436604;23;97006;-96
2023/06/23 08:18:14;;;;;;;18.90;11.32;;;29.60;96.20;;;28.83;64.63;99853.41;12464614;23;96537;-96
2023/06/23 08:23:17;;;;;;;12.52;10.02;;;29.80;95.80;;;29.04;66.54;99862.97;12441531;23;96406;-95
2023/06/23 08:28:21;;;;;;;15.70;12.52;;;30.00;95.90;;;29.22;63.99;99863.22;12463426;23;96519;-95
2023/06/23 08:33:24;;;;;;;13.82;12.48;;;30.20;95.20;;;29.34;63.84;99863.56;12463149;23;96515;-96
2023/06/23 08:38:28;;;;;;;16.50;12.73;;;30.30;95.10;;;29.47;63.31;99865.50;12490450;23;96269;-96
2023/06/23 08:43:35;;;;;;;16.42;12.90;;;30.40;94.80;;;29.51;62.70;99857.53;12438911;23;96496;-95
2023/06/23 08:48:42;;;;;;;15.23;12.75;;;30.50;94.50;;;29.65;63.24;99863.03;12463825;23;96377;-95
2023/06/23 08:53:46;;;;;;;18.27;13.50;;;30.60;94.40;;;29.76;62.79;99861.72;12463792;23;96469;-96
2023/06/23 08:58:50;;;;;;;14.75;13.07;;;30.70;94.10;;;29.84;61.36;99853.59;12462531;23;96918;-95
2023/06/23 09:03:54;;;;;;;16.00;12.93;;;30.80;93.70;;;29.80;61.06;99854.50;12461829;23;96803;-96
2023/06/23 09:08:58;;;;;;;16.58;14.20;;;30.80;93.30;;;29.87;62.72;99865.91;12462068;23;99581;-96
2023/06/23 09:14:06;;;;;;;18.05;13.35;;;30.70;93.30;;;30.06;61.65;99869.34;12460654;23;96401;-96
2023/06/23 09:19:11;;;;;;;15.32;12.98;;;30.90;93.40;;;30.17;59.74;99869.13;12462364;23;96309;-96
2023/06/23 09:24:15;;;;;;;14.68;13.13;;;31.10;92.70;;;30.30;59.87;99868.34;12465615;23;97286;-96
2023/06/23 09:29:26;;;;;;;16.25;11.77;;;31.20;92.50;;;30.51;60.52;99869.50;12441924;23;96452;-96
2023/06/23 09:34:36;;;;;;;13.55;12.18;;;31.40;93.00;;;30.72;57.55;99875.38;12464237;23;96629;-96
2023/06/23 09:39:48;;;;;;;21.33;13.35;;;31.70;91.90;;;30.94;58.16;99880.06;12468109;23;96405;-96
2023/06/23 09:44:52;;;;;;;47.50;18.02;;;31.90;91.70;;;31.10;58.12;99875.81;12469311;23;96878;-95
2023/06/23 09:49:55;;;;;;;15.77;12.68;;;32.00;91.30;;;31.28;58.03;99879.53;12502767;23;97571;-96
2023/06/23 09:55:06;;;;;;;15.40;11.68;;;32.20;91.10;;;31.42;57.96;99890.41;12507288;23;96749;-95
2023/06/23 10:00:10;;;;;;;14.85;12.98;;;32.40;91.00;;;31.32;56.65;99891.50;12473834;23;96600;-96
2023/06/23 10:05:16;;;;;;;17.67;12.52;;;32.30;90.80;;;31.34;58.37;99875.53;12461892;23;96436;-95
2023/06/23 10:10:20;;;;;;;16.20;12.10;;;32.30;91.20;;;31.33;56.87;99884.88;12463106;23;96773;-95
2023/06/23 10:15:28;;;;;;;16.30;13.00;;;32.40;90.70;;;31.29;58.46;99880.34;12463981;23;96906;-93
2023/06/23 10:20:32;;;;;;;17.15;12.82;;;32.30;90.80;;;31.16;57.95;99873.75;12464733;23;97049;-94
2023/06/23 10:25:37;;;;;;;15.20;13.57;;;32.20;90.80;;;31.14;57.81;99878.75;12463943;23;96587;-96
2023/06/23 10:30:42;;;;;;;14.23;11.38;;;32.00;90.60;;;31.15;57.72;99870.22;12460828;23;96565;-94
2023/06/23 10:35:51;;;;;;;16.45;13.48;;;32.10;90.50;;;31.18;57.44;99866.81;12468244;23;97061;-96
2023/06/23 10:40:59;;;;;;;19.20;13.98;;;32.20;90.10;;;31.20;57.64;99873.97;12459944;23;96531;-94
2023/06/23 10:46:04;;;;;;;;;;;32.10;90.30;;;31.37;58.79;99858.44;12459192;23;96462;-94
2023/06/23 10:51:10;;;;;;;20.75;13.60;;;32.20;90.50;;;31.68;57.58;99849.38;12438763;23;96901;-94
2023/06/23 10:56:35;;;;;;;14.63;12.15;;;32.60;90.20;;;31.87;54.12;99851.91;12460889;23;96520;-93
2023/06/23 11:02:02;;;;;;;15.50;11.70;;;32.90;86.00;;;32.02;54.81;99845.94;12462358;23;96387;-94
2023/06/23 11:07:10;;;;;;;14.55;12.43;;;33.00;87.00;;;32.14;54.79;99832.41;12488001;23;96678;-94
2023/06/23 11:12:37;;;;;;;17.85;13.18;;;33.10;86.90;;;32.38;54.78;99829.22;12462135;23;96492;-94
2023/06/23 11:17:45;;;;;;;20.02;11.88;;;33.30;85.60;;;32.48;52.80;99822.63;12487114;23;96358;-93
2023/06/23 11:23:13;;;;;;;18.30;10.70;;;33.50;85.00;;;32.56;53.69;99821.00;12488544;23;96384;-96
2023/06/23 11:28:38;;;;;;;15.43;11.93;;;33.60;84.90;;;32.61;52.49;99823.59;12463006;23;96410;-94
2023/06/23 11:33:55;;;;;;;15.00;11.50;;;33.60;84.50;;;32.72;52.16;99819.38;12463119;23;96494;-95
2023/06/23 11:39:00;;;;;;;14.98;11.95;;;33.70;84.20;;;32.79;51.15;99813.38;12485561;23;96296;-96
2023/06/23 11:44:04;;;;;;;19.95;11.52;;;33.80;81.90;;;32.79;50.99;99803.19;12487294;23;96440;-96
2023/06/23 11:49:13;;;;;;;16.63;11.85;;;33.80;82.20;;;32.68;53.63;99799.94;12461894;23;96322;-94
2023/06/23 11:54:17;;;;;;;14.95;10.77;;;33.70;83.90;;;32.85;54.13;99803.81;12462273;23;96446;-95
2023/06/23 11:59:21;;;;;;;14.93;11.20;;;33.80;84.30;;;33.05;52.93;99805.09;12461661;23;96372;-93
2023/06/23 12:04:25;;;;;;;13.63;10.50;;;34.00;83.60;;;32.99;53.06;99785.22;12437929;23;96597;-95
2023/06/23 12:09:30;;;;;;;16.02;10.82;;;34.00;83.30;;;32.79;53.25;99792.16;12461372;23;96878;-92
2023/06/23 12:14:34;;;;;;;16.60;12.15;;;33.70;83.00;;;32.48;51.69;99778.63;12461163;23;96533;-90
2023/06/23 12:19:39;;;;;;;13.13;10.93;;;33.40;82.00;;;32.32;53.25;99769.19;12460797;23;96990;-95
2023/06/23 12:24:44;;;;;;;13.32;11.32;;;33.20;83.00;;;32.19;53.55;99768.22;12461249;23;96546;-94
2023/06/23 12:29:48;;;;;;;15.57;12.45;;;33.10;83.10;;;31.96;55.40;99767.53;12459180;23;96449;-92
2023/06/23 12:34:56;;;;;;;14.88;11.60;;;32.80;84.50;;;31.79;56.12;99761.97;12458436;23;97144;-90
2023/06/23 12:40:00;;;;;;;18.85;11.27;;;32.60;85.00;;;31.66;56.65;99759.03;12459227;23;97263;-91
2023/06/23 12:45:05;;;;;;;16.33;12.23;;;32.50;85.40;;;31.70;60.03;99753.72;12459167;23;96383;-91
2023/06/23 12:50:10;;;;;;;15.05;12.75;;;32.50;88.10;;;32.05;59.16;99754.63;12460822;23;96528;-89
2023/06/23 12:55:14;;;;;;;18.08;13.25;;;32.80;88.60;;;32.47;58.39;99749.50;12436793;23;96544;-92
2023/06/23 13:00:24;;;;;;;16.02;13.05;;;33.20;88.20;;;32.57;56.33;99748.34;12457184;23;97252;-91
2023/06/23 13:05:28;;;;;;;14.53;12.80;;;33.30;86.90;;;32.18;56.94;99750.91;12461049;23;96697;-90
2023/06/23 13:10:32;;;;;;;14.73;13.23;;;32.90;86.80;;;31.99;58.33;99755.91;12460782;23;96646;-90
2023/06/23 13:15:36;;;;;;;13.93;12.20;;;32.70;88.00;;;32.22;57.88;99754.66;12461170;23;96455;-90
2023/06/23 13:20:40;;;;;;;15.88;12.68;;;33.00;88.00;;;32.56;56.21;99744.78;12461501;23;97384;-89
2023/06/23 13:25:44;;;;;;;15.57;12.73;;;33.50;86.60;;;32.86;55.00;99739.41;12462013;23;96791;-89
2023/06/23 13:30:48;;;;;;;14.57;12.57;;;33.80;85.40;;;33.26;55.25;99751.78;12438231;23;96987;-88
2023/06/23 13:35:52;;;;;;;16.90;11.63;;;34.10;85.40;;;33.37;52.73;99752.22;12486109;23;96362;-92
2023/06/23 13:40:56;;;;;;;16.25;11.90;;;34.20;83.00;;;33.13;53.43;99769.31;12459875;23;97512;-90
2023/06/23 13:46:00;;;;;;;15.48;11.35;;;34.00;82.90;;;32.91;53.37;99764.03;12462026;23;96494;-92
2023/06/23 13:51:04;;;;;;;20.15;11.95;;;33.60;83.10;;;32.78;54.20;99773.25;12462095;23;96496;-88
2023/06/23 13:56:08;;;;;;;13.90;10.88;;;33.50;83.60;;;32.60;52.74;99773.25;12459427;23;96943;-91
2023/06/23 14:01:11;;;;;;;11.23;9.18;;;33.40;82.00;;;32.39;52.43;99772.31;12443084;23;96904;-90
2023/06/23 14:06:15;;;;;;;11.52;8.25;;;33.10;81.20;;;32.30;51.90;99774.22;12453841;23;96608;-90
2023/06/23 14:11:19;;;;;;;13.13;8.10;;;33.00;80.80;;;32.34;52.04;99783.47;12436183;23;97111;-85
2023/06/23 14:16:22;;;;;;;15.10;7.53;;;33.00;80.80;;;32.22;51.32;99765.66;12438223;23;96821;-92
2023/06/23 14:21:26;;;;;;;13.27;7.40;;;33.00;79.50;;;32.18;50.53;99761.09;12460330;23;96973;-87
2023/06/23 14:26:30;;;;;;;9.57;7.72;;;33.00;78.70;;;32.19;50.73;99768.22;12481982;23;96561;-90
2023/06/23 14:31:34;;;;;;;10.93;6.18;;;33.00;78.10;;;32.19;50.72;99766.28;12484707;23;96532;-91
2023/06/23 14:36:39;;;;;;;15.02;5.72;;;33.10;78.30;;;32.11;48.11;99758.84;12460006;23;96884;-88
2023/06/23 14:41:42;;;;;;;9.98;4.80;;;33.10;75.70;;;31.98;48.27;99757.06;12486171;23;96382;-84
2023/06/23 14:46:46;;;;;;;9.10;4.38;;;33.00;75.40;;;32.03;49.01;99745.91;12462109;23;96390;-89
2023/06/23 14:51:50;;;;;;;9.85;4.22;;;33.00;75.70;;;32.02;48.41;99741.53;12482694;23;96816;-85
2023/06/23 14:56:54;;;;;;;9.30;4.28;;;33.10;74.90;;;32.07;48.69;99738.63;12460187;23;96574;-85
2023/06/23 15:01:58;;;;;;;9.48;3.80;;;33.10;75.00;;;32.16;47.25;99730.41;12489454;23;96925;-84
2023/06/23 15:07:02;;;;;;;8.32;4.00;;;33.10;74.00;;;32.11;47.56;99712.13;12484265;23;96736;-85
2023/06/23 15:12:07;;;;;;;8.95;3.72;;;33.00;74.00;;;32.03;46.39;99698.34;12459557;23;97847;-87
2023/06/23 15:17:11;;;;;;;7.43;3.65;;;32.90;72.70;;;31.95;45.59;99695.28;12456609;23;96733;-83
2023/06/23 15:22:15;;;;;;;7.03;3.22;;;32.80;72.00;;;31.76;46.06;99691.22;12460258;23;96533;-86
2023/06/23 15:27:18;;;;;;;8.60;3.67;;;32.70;71.90;;;31.69;45.33;99697.97;12484074;23;96704;-86
2023/06/23 15:32:22;;;;;;;8.05;3.10;;;32.70;71.30;;;31.68;45.81;99715.59;12435297;23;96584;-85
2023/06/23 15:37:26;;;;;;;7.95;2.88;;;32.80;71.10;;;31.74;44.78;99715.44;12485449;23;97840;-84
2023/06/23 15:42:29;;;;;;;6.18;2.75;;;32.80;70.60;;;31.81;45.13;99718.56;12461483;23;96329;-85
2023/06/23 15:47:36;;;;;;;7.47;2.90;;;32.90;70.20;;;31.84;45.16;99717.91;12484512;23;96704;-84
2023/06/23 15:52:39;;;;;;;10.57;3.28;;;32.90;69.90;;;31.59;46.07;99733.97;12457275;23;96998;-84
2023/06/23 15:57:43;;;;;;;5.28;2.67;;;32.60;70.20;;;31.37;45.32;99745.88;12484202;23;96467;-87
2023/06/23 16:02:46;;;;;;;5.68;2.53;;;32.30;70.20;;;30.98;45.63;99767.75;12457073;23;96569;-87
2023/06/23 16:07:51;;;;;;;13.10;3.88;;;31.90;70.30;;;30.50;46.98;99760.16;12482636;23;96685;-83
2023/06/23 16:12:54;;;;;;;6.47;2.97;;;31.40;71.20;;;30.07;48.03;99755.88;12482345;23;96592;-86
2023/06/23 16:17:58;;;;;;;9.70;2.60;;;30.90;72.30;;;29.72;49.00;99762.13;12482138;23;96676;-84
2023/06/23 16:23:01;;;;;;;10.35;2.55;;;30.50;73.00;;;29.32;48.31;99767.25;12480733;23;97082;-84
2023/06/23 16:28:06;;;;;;;4.63;2.38;;;30.10;72.40;;;29.02;49.18;99769.44;12483376;23;96743;-85
2023/06/23 16:33:10;;;;;;;6.80;2.25;;;29.80;73.20;;;28.78;48.87;99785.13;12482406;23;96928;-86
2023/06/23 16:38:13;;;;;;;4.32;1.83;;;29.60;73.10;;;28.64;48.59;99774.16;12459128;23;96363;-85
2023/06/23 16:43:18;;;;;;;6.22;1.90;;;29.40;72.80;;;28.70;49.61;99802.22;12483740;23;96484;-86
2023/06/23 16:48:22;;;;;;;4.82;2.17;;;29.40;73.50;;;28.76;49.26;99818.25;12487054;23;96425;-85
2023/06/23 16:53:26;;;;;;;7.05;1.90;;;29.50;73.40;;;28.76;48.82;99818.25;12459510;23;96737;-90
2023/06/23 16:58:29;;;;;;;12.73;1.90;;;29.60;73.00;;;28.74;48.97;99800.53;12483420;23;96436;-86
2023/06/23 17:03:34;;;;;;;3.75;1.40;;;29.60;72.80;;;28.68;48.41;99785.31;12487191;23;96449;-87
2023/06/23 17:08:38;;;;;;;5.75;1.60;;;29.50;72.20;;;28.54;48.73;99813.38;12461370;23;96409;-87
2023/06/23 17:13:42;;;;;;;8.30;1.42;;;29.40;72.40;;;28.45;49.11;99842.50;12488002;23;96467;-85
2023/06/23 17:18:46;;;;;;;5.47;1.33;;;29.20;72.80;;;28.24;49.00;99854.78;12463582;23;97550;-89
2023/06/23 17:23:50;;;;;;;20.13;1.67;;;29.10;73.10;;;27.87;48.77;99919.13;12460328;23;96613;-88
2023/06/23 17:28:53;;;;;;;11.88;1.20;;;28.80;72.00;;;27.08;50.52;99906.72;12461820;23;96559;-85
2023/06/23 17:33:57;;;;;;;13.77;1.13;;;28.00;73.20;;;26.42;52.58;99911.41;12460962;23;96375;-87
2023/06/23 17:39:01;;;;;;;10.98;1.48;;;27.40;75.00;;;25.88;53.78;99914.84;12485491;23;96450;-88
2023/06/23 17:44:05;;;;;;;10.73;1.50;;;26.80;76.30;;;25.44;55.28;99930.94;12461094;23;96965;-87
2023/06/23 17:49:08;;;;;;;28.00;2.20;;;26.30;77.20;;;25.04;55.58;99901.78;12462402;23;96814;-86
2023/06/23 17:54:12;;;;;;;6.38;1.30;;;25.90;78.10;;;24.79;55.79;99900.66;12436165;23;96790;-87
2023/06/23 17:59:16;;;;;;;8.07;1.50;;;25.70;77.80;;;24.52;55.08;99891.88;12457474;23;96971;-92
2023/06/23 18:04:20;;;;;;;5.88;1.80;;;25.40;77.10;;;24.33;55.38;99915.16;12436668;23;96412;-91
2023/06/23 18:09:24;;;;;;;6.55;1.40;;;25.20;77.10;;;24.18;54.85;99905.06;12462510;23;96534;-93
2023/06/23 18:14:27;;;;;;;6.05;1.70;;;25.00;76.90;;;24.06;54.44;99902.56;12462644;23;96418;-89
2023/06/23 18:19:31;;;;;;;7.20;1.30;;;24.90;76.60;;;23.95;54.21;99907.09;12484833;23;96931;-89
2023/06/23 18:24:35;;;;;;;4.07;1.67;;;24.80;76.40;;;23.87;54.07;99914.91;12484419;23;96451;-87
2023/06/23 18:29:38;;;;;;;2.78;1.70;;;24.70;75.90;;;23.80;54.09;99870.91;12443217;23;96432;-89
2023/06/23 18:34:42;;;;;;;4.28;1.70;;;24.60;75.80;;;23.64;54.10;99878.16;12459218;23;96803;-87
2023/06/23 18:39:46;;;;;;;3.25;1.42;;;24.50;75.70;;;23.50;54.76;99899.44;12459902;23;96582;-87
2023/06/23 18:44:51;;;;;;;4.20;1.65;;;24.30;76.20;;;23.40;55.63;99931.91;12483386;23;96900;-89
2023/06/23 18:49:55;;;;;;;3.28;1.63;;;24.20;77.20;;;23.32;56.40;99940.50;12459763;23;96536;-87
2023/06/23 18:54:59;;;;;;;3.88;1.50;;;24.10;77.60;;;23.24;56.17;99964.31;12459413;23;96595;-88
2023/06/23 19:00:05;;;;;;;3.25;1.50;;;24.10;77.90;;;23.19;56.16;100018.47;12462221;23;96345;-88
2023/06/23 19:05:09;;;;;;;4.82;1.90;;;24.00;78.00;;;23.10;56.66;100063.38;12484201;23;96442;-85
2023/06/23 19:10:13;;;;;;;4.95;1.67;;;23.90;78.20;;;23.06;57.05;100056.81;12458516;23;96606;-84
2023/06/23 19:15:17;;;;;;;2.90;1.85;;;23.90;78.60;;;22.95;57.99;100079.44;12483676;23;96991;-85
2023/06/23 19:20:20;;;;;;;4.15;1.80;;;23.80;79.30;;;22.87;58.75;100128.66;12460972;23;97367;-84
2023/06/23 19:25:26;;;;;;;2.70;2.20;;;23.70;80.20;;;22.68;63.08;100128.91;12483171;23;96755;-85
2023/06/23 19:30:29;;;;;;;6.18;2.33;;;23.60;82.60;;;22.28;65.75;100163.47;12436639;23;96525;-87
2023/06/23 19:35:34;;;;;;;7.25;1.77;;;23.20;85.50;;;21.73;70.10;100170.34;12482574;23;96440;-88
2023/06/23 19:40:37;;;;;;;3.83;1.92;;;22.70;88.40;;;21.26;71.68;100185.84;12463739;23;96577;-89
2023/06/23 19:45:44;;;;;;;8.00;1.73;;;22.30;90.10;;;20.94;72.95;100215.16;12458251;23;96945;-88
2023/06/23 19:50:48;;;;;;;2.65;1.52;;;21.90;90.70;;;20.79;73.45;100256.13;12437415;23;97100;-85
2023/06/23 19:55:52;;;;;;;2.92;1.75;;;21.70;90.90;;;20.68;73.18;100276.63;12484925;23;96548;-87
2023/06/23 20:00:55;;;;;;;4.88;1.95;;;21.60;91.00;;;20.54;75.98;100331.91;12461883;23;97658;-89
2023/06/23 20:05:59;;;;;;;5.03;2.65;;;21.50;91.80;;;20.14;80.83;100339.69;12461691;23;96458;-90
2023/06/23 20:11:03;;;;;;;6.35;2.92;;;21.10;93.20;;;19.63;84.27;100368.69;12486138;23;96512;-93
2023/06/23 20:16:08;;;;;;;6.32;3.00;;;20.70;94.30;;;19.11;90.37;100376.16;12460039;23;96554;-93
2023/06/23 20:21:14;;;;;;;4.75;3.38;;;20.20;96.00;;;18.60;95.94;100362.84;12459501;23;96909;-88
2023/06/23 20:26:18;;;;;;;5.85;3.60;;;19.70;98.60;;;18.26;100.00;100351.41;12461045;23;96574;-86
2023/06/23 20:31:22;;;;;;;7.00;3.55;;;19.40;99.90;;;18.03;100.00;100314.28;12485736;23;96465;-86
2023/06/23 20:36:25;;;;;;;6.93;3.38;;;19.20;99.90;;;17.84;100.00;100305.25;12485057;23;97233;-85
2023/06/23 20:41:29;;;;;;;7.07;3.80;;;19.00;99.90;;;17.71;100.00;100313.34;12461930;23;96865;-86
2023/06/23 20:46:32;;;;;;;4.55;3.70;;;18.80;99.90;;;17.64;100.00;100309.84;12486231;23;96549;-87
2023/06/23 20:51:36;;;;;;;5.32;3.60;;;18.70;99.90;;;17.56;100.00;100318.94;12460456;23;96490;-86
2023/06/23 20:56:42;;;;;;;4.75;3.85;;;18.70;99.90;;;17.52;100.00;100317.75;12459370;23;96405;-87